Kezdőlap
METAR-TAF:

METAR-TAF

Repülőterek :

Ammán, Jordánia

földrajzi szélesség: 31-59N, földrajzi hosszúság: 035-59E, magasság: 767 m

Jelenlegi meteorológiai megfigyelések

A jelentés 39 perccel ezelõtt készült, 02:00 UTC
Északi szél 5 kt
Hőmérséklet 21°C
Páratartalom 69%
Légköri nyomás 1010 hPa
Látótávolság: 6000 m

METAR: OJAM 200200Z 01005KT 6000 NSC 21/15 Q1010 NOSIG

Idő: 05:39 (02:39 UTC)

Előrejelzés

A jelentés 3 órával és 39 perccel ezelõtt készült, 23:00 UTC
Az előrejelzés 20-én 00 óra UTC és 21-én 06 óra UTC között érvényes
Nyugati szél 4 kt
Látótávolság: 5000 m
Száraz légköri homály
20-én 09 óra UTC és 20-én 15 óra UTC között ideiglenes
Nyugat-északnyugati szél 12 kt
Kevés felhő 3000 lábon

TAF: OJAM 192300Z 2000/2106 28004KT 5000 HZ NSC TEMPO 2009/2015 29012KT FEW030

Meteorológiai megfigyelések és előrejelzések több, mint 4000 repülőtéren (METAR és TAF jelentéseket).

A térképen piros és sárga pontok jelzik az elérhető meteorológiai állomásokat.

Mozgassa az egeret a pont fölött, hogy megjelenjen az állomás neve.

Azután kattintson az időjárási megfigyelések és előrejelzések megtekintéséhez.

A térkép megváltoztatása: kattintson a fekete keresztel jelölt zöld gombra ráközelítéshez, a vonallal jelölt zöld gombra távolításhoz, vagy a zöld nyilakra a szomszédos térképek eléréséhez.


METAR-TAF: